sensor_id;sensor_type;location;lat;lon;timestamp;pressure;altitude;pressure_sealevel;temperature;humidity
29121;BME280;16191;49.548;8.658;2023-05-10T00:01:13;99789.41;;;13.73;100.00
29121;BME280;16191;49.548;8.658;2023-05-10T00:03:39;99789.31;;;13.75;100.00
29121;BME280;16191;49.548;8.658;2023-05-10T00:06:06;99791.75;;;13.78;100.00
29121;BME280;16191;49.548;8.658;2023-05-10T00:08:33;99794.88;;;13.85;100.00
29121;BME280;16191;49.548;8.658;2023-05-10T00:10:59;99793.44;;;13.79;100.00
29121;BME280;16191;49.548;8.658;2023-05-10T00:13:26;99806.56;;;13.79;100.00
29121;BME280;16191;49.548;8.658;2023-05-10T00:15:53;99807.59;;;13.77;100.00
29121;BME280;16191;49.548;8.658;2023-05-10T00:18:19;99811.16;;;13.76;100.00
29121;BME280;16191;49.548;8.658;2023-05-10T00:20:46;99810.78;;;13.82;100.00
29121;BME280;16191;49.548;8.658;2023-05-10T00:23:12;99811.22;;;13.88;100.00
29121;BME280;16191;49.548;8.658;2023-05-10T00:25:39;99812.06;;;13.89;100.00
29121;BME280;16191;49.548;8.658;2023-05-10T00:28:06;99816.97;;;13.81;100.00
29121;BME280;16191;49.548;8.658;2023-05-10T00:30:32;99813.41;;;13.82;100.00
29121;BME280;16191;49.548;8.658;2023-05-10T00:33:00;99807.94;;;13.70;100.00
29121;BME280;16191;49.548;8.658;2023-05-10T00:35:27;99809.72;;;13.70;100.00
29121;BME280;16191;49.548;8.658;2023-05-10T00:37:53;99808.31;;;13.64;100.00
29121;BME280;16191;49.548;8.658;2023-05-10T00:40:20;99809.91;;;13.67;100.00
29121;BME280;16191;49.548;8.658;2023-05-10T00:42:52;99814.69;;;13.60;100.00
29121;BME280;16191;49.548;8.658;2023-05-10T00:45:18;99818.06;;;13.62;100.00
29121;BME280;16191;49.548;8.658;2023-05-10T00:47:45;99813.38;;;13.67;100.00
29121;BME280;16191;49.548;8.658;2023-05-10T00:50:13;99811.69;;;13.66;100.00
29121;BME280;16191;49.548;8.658;2023-05-10T00:52:42;99818.16;;;13.75;100.00
29121;BME280;16191;49.548;8.658;2023-05-10T00:55:10;99813.00;;;13.73;100.00
29121;BME280;16191;49.548;8.658;2023-05-10T00:57:38;99813.69;;;13.63;100.00
29121;BME280;16191;49.548;8.658;2023-05-10T01:00:05;99820.59;;;13.64;100.00
29121;BME280;16191;49.548;8.658;2023-05-10T01:02:34;99826.41;;;13.69;100.00
29121;BME280;16191;49.548;8.658;2023-05-10T01:05:02;99821.53;;;13.63;100.00
29121;BME280;16191;49.548;8.658;2023-05-10T01:07:29;99818.06;;;13.62;100.00
29121;BME280;16191;49.548;8.658;2023-05-10T01:09:56;99822.75;;;13.57;100.00
29121;BME280;16191;49.548;8.658;2023-05-10T01:12:23;99824.03;;;13.64;100.00
29121;BME280;16191;49.548;8.658;2023-05-10T01:14:50;99820.69;;;13.62;100.00
29121;BME280;16191;49.548;8.658;2023-05-10T01:17:18;99818.25;;;13.59;100.00
29121;BME280;16191;49.548;8.658;2023-05-10T01:19:44;99813.09;;;13.58;100.00
29121;BME280;16191;49.548;8.658;2023-05-10T01:25:19;99826.22;;;13.58;100.00
29121;BME280;16191;49.548;8.658;2023-05-10T01:34:35;99822.00;;;13.55;100.00
29121;BME280;16191;49.548;8.658;2023-05-10T01:37:41;99820.47;;;13.51;100.00
29121;BME280;16191;49.548;8.658;2023-05-10T01:40:35;99824.03;;;13.50;100.00
29121;BME280;16191;49.548;8.658;2023-05-10T01:43:26;99825.06;;;13.48;100.00
29121;BME280;16191;49.548;8.658;2023-05-10T01:46:03;99827.41;;;13.52;100.00
29121;BME280;16191;49.548;8.658;2023-05-10T01:48:40;99829.44;;;13.33;100.00
29121;BME280;16191;49.548;8.658;2023-05-10T01:51:17;99831.03;;;13.35;100.00
29121;BME280;16191;49.548;8.658;2023-05-10T01:53:46;99829.72;;;13.43;100.00
29121;BME280;16191;49.548;8.658;2023-05-10T01:56:16;99833.19;;;13.43;100.00
29121;BME280;16191;49.548;8.658;2023-05-10T01:58:45;99830.94;;;13.37;100.00
29121;BME280;16191;49.548;8.658;2023-05-10T02:01:15;99830.78;;;13.40;100.00
29121;BME280;16191;49.548;8.658;2023-05-10T02:03:43;99835.25;;;13.38;100.00
29121;BME280;16191;49.548;8.658;2023-05-10T02:06:12;99842.38;;;13.36;100.00
29121;BME280;16191;49.548;8.658;2023-05-10T02:08:41;99842.94;;;13.41;100.00
29121;BME280;16191;49.548;8.658;2023-05-10T02:11:10;99842.38;;;13.36;100.00
29121;BME280;16191;49.548;8.658;2023-05-10T02:13:39;99837.28;;;13.33;100.00
29121;BME280;16191;49.548;8.658;2023-05-10T02:16:07;99844.97;;;13.36;100.00
29121;BME280;16191;49.548;8.658;2023-05-10T02:18:34;99838.44;;;13.43;100.00
29121;BME280;16191;49.548;8.658;2023-05-10T02:21:02;99843.66;;;13.43;100.00
29121;BME280;16191;49.548;8.658;2023-05-10T02:23:30;99843.88;;;13.40;100.00
29121;BME280;16191;49.548;8.658;2023-05-10T02:25:58;99847.13;;;13.44;100.00
29121;BME280;16191;49.548;8.658;2023-05-10T02:28:26;99848.34;;;13.38;100.00
29121;BME280;16191;49.548;8.658;2023-05-10T02:30:55;99846.66;;;13.37;100.00
29121;BME280;16191;49.548;8.658;2023-05-10T02:33:22;99845.16;;;13.33;100.00
29121;BME280;16191;49.548;8.658;2023-05-10T02:35:52;99849.13;;;13.40;100.00
29121;BME280;16191;49.548;8.658;2023-05-10T02:38:20;99839.00;;;13.48;100.00
29121;BME280;16191;49.548;8.658;2023-05-10T02:40:49;99840.78;;;13.48;100.00
29121;BME280;16191;49.548;8.658;2023-05-10T02:43:18;99835.09;;;13.41;100.00
29121;BME280;16191;49.548;8.658;2023-05-10T02:45:47;99844.13;;;13.35;100.00
29121;BME280;16191;49.548;8.658;2023-05-10T02:48:15;99840.69;;;13.35;100.00
29121;BME280;16191;49.548;8.658;2023-05-10T02:50:44;99845.25;;;13.31;100.00
29121;BME280;16191;49.548;8.658;2023-05-10T02:53:15;99844.41;;;13.31;100.00
29121;BME280;16191;49.548;8.658;2023-05-10T02:55:50;99849.81;;;13.28;100.00
29121;BME280;16191;49.548;8.658;2023-05-10T02:58:17;99844.41;;;13.31;100.00
29121;BME280;16191;49.548;8.658;2023-05-10T03:00:45;99835.88;;;13.27;100.00
29121;BME280;16191;49.548;8.658;2023-05-10T03:03:12;99841.28;;;13.24;100.00
29121;BME280;16191;49.548;8.658;2023-05-10T03:05:39;99832.16;;;13.31;100.00
29121;BME280;16191;49.548;8.658;2023-05-10T03:08:06;99842.88;;;13.27;100.00
29121;BME280;16191;49.548;8.658;2023-05-10T03:10:39;99841.69;;;13.32;100.00
29121;BME280;16191;49.548;8.658;2023-05-10T03:13:14;99839.69;;;13.22;100.00
29121;BME280;16191;49.548;8.658;2023-05-10T03:16:01;99834.66;;;13.19;100.00
29121;BME280;16191;49.548;8.658;2023-05-10T03:18:44;99842.22;;;13.23;100.00
29121;BME280;16191;49.548;8.658;2023-05-10T03:21:11;99838.13;;;13.19;100.00
29121;BME280;16191;49.548;8.658;2023-05-10T03:23:43;99837.19;;;13.20;100.00
29121;BME280;16191;49.548;8.658;2023-05-10T03:26:17;99844.69;;;13.11;100.00
29121;BME280;16191;49.548;8.658;2023-05-10T03:28:45;99852.53;;;13.11;100.00
29121;BME280;16191;49.548;8.658;2023-05-10T03:31:12;99850.75;;;13.11;100.00
29121;BME280;16191;49.548;8.658;2023-05-10T03:33:46;99852.47;;;13.12;100.00
29121;BME280;16191;49.548;8.658;2023-05-10T03:36:14;99856.63;;;13.16;100.00
29121;BME280;16191;49.548;8.658;2023-05-10T03:38:41;99852.72;;;13.08;100.00
29121;BME280;16191;49.548;8.658;2023-05-10T03:41:07;99861.59;;;13.05;100.00
29121;BME280;16191;49.548;8.658;2023-05-10T03:43:34;99860.81;;;13.03;100.00
29121;BME280;16191;49.548;8.658;2023-05-10T03:46:02;99860.75;;;13.04;100.00
29121;BME280;16191;49.548;8.658;2023-05-10T03:48:31;99870.53;;;13.01;100.00
29121;BME280;16191;49.548;8.658;2023-05-10T03:50:58;99871.97;;;13.07;100.00
29121;BME280;16191;49.548;8.658;2023-05-10T03:53:25;99856.19;;;13.08;100.00
29121;BME280;16191;49.548;8.658;2023-05-10T03:55:51;99871.03;;;13.08;100.00
29121;BME280;16191;49.548;8.658;2023-05-10T03:58:18;99870.03;;;13.10;100.00
29121;BME280;16191;49.548;8.658;2023-05-10T04:00:45;99865.56;;;13.12;100.00
29121;BME280;16191;49.548;8.658;2023-05-10T04:03:13;99869.53;;;13.03;100.00
29121;BME280;16191;49.548;8.658;2023-05-10T04:05:40;99869.03;;;13.13;100.00
29121;BME280;16191;49.548;8.658;2023-05-10T04:08:06;99869.84;;;13.13;100.00
29121;BME280;16191;49.548;8.658;2023-05-10T04:10:33;99878.50;;;13.15;100.00
29121;BME280;16191;49.548;8.658;2023-05-10T04:12:59;99877.13;;;13.08;100.00
29121;BME280;16191;49.548;8.658;2023-05-10T04:15:26;99881.59;;;13.06;100.00
29121;BME280;16191;49.548;8.658;2023-05-10T04:17:52;99888.72;;;13.04;100.00
29121;BME280;16191;49.548;8.658;2023-05-10T04:20:20;99888.78;;;13.02;100.00
29121;BME280;16191;49.548;8.658;2023-05-10T04:22:46;99888.03;;;13.00;100.00
29121;BME280;16191;49.548;8.658;2023-05-10T04:25:13;99894.41;;;12.96;100.00
29121;BME280;16191;49.548;8.658;2023-05-10T04:27:39;99893.09;;;13.03;100.00
29121;BME280;16191;49.548;8.658;2023-05-10T04:30:07;99891.16;;;13.07;100.00
29121;BME280;16191;49.548;8.658;2023-05-10T04:32:33;99887.09;;;13.01;100.00
29121;BME280;16191;49.548;8.658;2023-05-10T04:35:00;99899.28;;;13.02;100.00
29121;BME280;16191;49.548;8.658;2023-05-10T04:37:29;99894.19;;;12.99;100.00
29121;BME280;16191;49.548;8.658;2023-05-10T04:39:55;99887.59;;;13.08;100.00
29121;BME280;16191;49.548;8.658;2023-05-10T04:42:22;99890.16;;;13.10;100.00
29121;BME280;16191;49.548;8.658;2023-05-10T04:44:49;99891.16;;;13.07;100.00
29121;BME280;16191;49.548;8.658;2023-05-10T04:47:15;99889.38;;;13.08;100.00
29121;BME280;16191;49.548;8.658;2023-05-10T04:49:42;99894.53;;;13.09;100.00
29121;BME280;16191;49.548;8.658;2023-05-10T04:52:09;99899.84;;;13.08;100.00
29121;BME280;16191;49.548;8.658;2023-05-10T04:54:35;99908.47;;;13.10;100.00
29121;BME280;16191;49.548;8.658;2023-05-10T04:57:02;99904.94;;;13.11;100.00
29121;BME280;16191;49.548;8.658;2023-05-10T04:59:29;99896.91;;;13.14;100.00
29121;BME280;16191;49.548;8.658;2023-05-10T05:01:55;99906.53;;;13.13;100.00
29121;BME280;16191;49.548;8.658;2023-05-10T05:04:22;99903.91;;;13.13;100.00
29121;BME280;16191;49.548;8.658;2023-05-10T05:06:50;99910.72;;;13.17;100.00
29121;BME280;16191;49.548;8.658;2023-05-10T05:09:19;99905.69;;;13.13;100.00
29121;BME280;16191;49.548;8.658;2023-05-10T05:11:46;99915.31;;;13.12;100.00
29121;BME280;16191;49.548;8.658;2023-05-10T05:14:12;99913.25;;;13.19;100.00
29121;BME280;16191;49.548;8.658;2023-05-10T05:16:39;99908.72;;;13.21;100.00
29121;BME280;16191;49.548;8.658;2023-05-10T05:19:06;99913.41;;;13.16;100.00
29121;BME280;16191;49.548;8.658;2023-05-10T05:21:32;99917.63;;;13.18;100.00
29121;BME280;16191;49.548;8.658;2023-05-10T05:23:59;99916.72;;;13.19;100.00
29121;BME280;16191;49.548;8.658;2023-05-10T05:26:26;99922.44;;;13.26;100.00
29121;BME280;16191;49.548;8.658;2023-05-10T05:28:52;99912.13;;;13.23;100.00
29121;BME280;16191;49.548;8.658;2023-05-10T05:31:21;99923.09;;;13.29;100.00
29121;BME280;16191;49.548;8.658;2023-05-10T05:33:47;99916.94;;;13.30;100.00
29121;BME280;16191;49.548;8.658;2023-05-10T05:36:14;99923.44;;;13.39;100.00
29121;BME280;16191;49.548;8.658;2023-05-10T05:38:40;99922.00;;;13.33;100.00
29121;BME280;16191;49.548;8.658;2023-05-10T05:41:07;99928.84;;;13.36;100.00
29121;BME280;16191;49.548;8.658;2023-05-10T05:43:33;99923.34;;;13.25;100.00
29121;BME280;16191;49.548;8.658;2023-05-10T05:46:03;99928.75;;;13.22;100.00
29121;BME280;16191;49.548;8.658;2023-05-10T05:48:30;99937.66;;;13.19;100.00
29121;BME280;16191;49.548;8.658;2023-05-10T05:50:57;99938.41;;;13.21;100.00
29121;BME280;16191;49.548;8.658;2023-05-10T05:53:24;99942.47;;;13.27;100.00
29121;BME280;16191;49.548;8.658;2023-05-10T05:55:55;99936.13;;;13.31;100.00
29121;BME280;16191;49.548;8.658;2023-05-10T05:58:22;99941.59;;;13.42;100.00
29121;BME280;16191;49.548;8.658;2023-05-10T06:00:49;99939.44;;;13.49;100.00
29121;BME280;16191;49.548;8.658;2023-05-10T06:03:16;99942.16;;;13.47;100.00
29121;BME280;16191;49.548;8.658;2023-05-10T06:05:43;99941.19;;;13.34;100.00
29121;BME280;16191;49.548;8.658;2023-05-10T06:08:10;99950.66;;;13.36;100.00
29121;BME280;16191;49.548;8.658;2023-05-10T06:10:36;99952.91;;;13.43;100.00
29121;BME280;16191;49.548;8.658;2023-05-10T06:13:03;99952.25;;;13.39;100.00
29121;BME280;16191;49.548;8.658;2023-05-10T06:15:30;99952.34;;;13.37;100.00
29121;BME280;16191;49.548;8.658;2023-05-10T06:17:56;99956.50;;;13.42;100.00
29121;BME280;16191;49.548;8.658;2023-05-10T06:20:23;99963.22;;;13.46;100.00
29121;BME280;16191;49.548;8.658;2023-05-10T06:22:49;99958.72;;;13.48;100.00
29121;BME280;16191;49.548;8.658;2023-05-10T06:25:16;99961.59;;;13.43;100.00
29121;BME280;16191;49.548;8.658;2023-05-10T06:27:44;99960.59;;;13.46;100.00
29121;BME280;16191;49.548;8.658;2023-05-10T06:30:16;99956.53;;;13.56;100.00
29121;BME280;16191;49.548;8.658;2023-05-10T06:32:42;99959.91;;;13.58;100.00
29121;BME280;16191;49.548;8.658;2023-05-10T06:35:10;99951.88;;;13.61;100.00
29121;BME280;16191;49.548;8.658;2023-05-10T06:37:37;99950.56;;;13.68;100.00
29121;BME280;16191;49.548;8.658;2023-05-10T06:40:04;99952.06;;;13.72;100.00
29121;BME280;16191;49.548;8.658;2023-05-10T06:42:31;99949.47;;;13.72;100.00
29121;BME280;16191;49.548;8.658;2023-05-10T06:44:58;99947.47;;;13.61;100.00
29121;BME280;16191;49.548;8.658;2023-05-10T06:47:24;99941.50;;;13.73;100.00
29121;BME280;16191;49.548;8.658;2023-05-10T06:49:51;99945.28;;;13.84;100.00
29121;BME280;16191;49.548;8.658;2023-05-10T06:52:17;99951.16;;;13.87;100.00
29121;BME280;16191;49.548;8.658;2023-05-10T06:54:44;99954.09;;;13.83;100.00
29121;BME280;16191;49.548;8.658;2023-05-10T06:57:10;99946.91;;;13.70;100.00
29121;BME280;16191;49.548;8.658;2023-05-10T06:59:55;99959.13;;;13.86;100.00
29121;BME280;16191;49.548;8.658;2023-05-10T07:02:22;99958.66;;;13.79;100.00
29121;BME280;16191;49.548;8.658;2023-05-10T07:04:49;99960.78;;;13.72;100.00
29121;BME280;16191;49.548;8.658;2023-05-10T07:07:16;99960.63;;;13.76;100.00
29121;BME280;16191;49.548;8.658;2023-05-10T07:09:42;99962.03;;;13.81;100.00
29121;BME280;16191;49.548;8.658;2023-05-10T07:12:09;99964.94;;;13.77;100.00
29121;BME280;16191;49.548;8.658;2023-05-10T07:14:39;99963.91;;;13.79;100.00
29121;BME280;16191;49.548;8.658;2023-05-10T07:17:06;99966.25;;;13.84;100.00
29121;BME280;16191;49.548;8.658;2023-05-10T07:19:32;99973.66;;;13.91;100.00
29121;BME280;16191;49.548;8.658;2023-05-10T07:21:59;99970.66;;;13.83;100.00
29121;BME280;16191;49.548;8.658;2023-05-10T07:24:26;99973.84;;;13.88;100.00
29121;BME280;16191;49.548;8.658;2023-05-10T07:26:52;99964.88;;;13.92;100.00
29121;BME280;16191;49.548;8.658;2023-05-10T07:29:19;99965.63;;;13.94;100.00
29121;BME280;16191;49.548;8.658;2023-05-10T07:31:45;99967.41;;;14.08;100.00
29121;BME280;16191;49.548;8.658;2023-05-10T07:34:12;99967.81;;;14.16;100.00
29121;BME280;16191;49.548;8.658;2023-05-10T07:36:38;99963.72;;;14.26;100.00
29121;BME280;16191;49.548;8.658;2023-05-10T07:39:05;99964.59;;;14.41;100.00
29121;BME280;16191;49.548;8.658;2023-05-10T07:41:31;99960.66;;;14.48;100.00
29121;BME280;16191;49.548;8.658;2023-05-10T07:44:00;99953.38;;;14.37;100.00
29121;BME280;16191;49.548;8.658;2023-05-10T07:46:27;99960.22;;;14.40;100.00
29121;BME280;16191;49.548;8.658;2023-05-10T07:48:55;99960.84;;;14.45;100.00
29121;BME280;16191;49.548;8.658;2023-05-10T07:51:21;99957.53;;;14.56;100.00
29121;BME280;16191;49.548;8.658;2023-05-10T07:53:48;99960.19;;;14.70;100.00
29121;BME280;16191;49.548;8.658;2023-05-10T07:56:23;99964.69;;;14.68;100.00
29121;BME280;16191;49.548;8.658;2023-05-10T07:58:51;99951.50;;;14.82;100.00
29121;BME280;16191;49.548;8.658;2023-05-10T08:01:18;99956.75;;;14.82;100.00
29121;BME280;16191;49.548;8.658;2023-05-10T08:03:45;99957.09;;;15.04;100.00
29121;BME280;16191;49.548;8.658;2023-05-10T08:06:11;99956.28;;;15.17;100.00
29121;BME280;16191;49.548;8.658;2023-05-10T08:08:38;99949.66;;;15.11;100.00
29121;BME280;16191;49.548;8.658;2023-05-10T08:11:04;99945.44;;;15.08;100.00
29121;BME280;16191;49.548;8.658;2023-05-10T08:13:31;99955.44;;;15.16;100.00
29121;BME280;16191;49.548;8.658;2023-05-10T08:15:58;99949.78;;;15.09;100.00
29121;BME280;16191;49.548;8.658;2023-05-10T08:18:24;99947.69;;;15.15;100.00
29121;BME280;16191;49.548;8.658;2023-05-10T08:20:51;99956.44;;;15.15;100.00
29121;BME280;16191;49.548;8.658;2023-05-10T08:23:17;99959.16;;;14.99;100.00
29121;BME280;16191;49.548;8.658;2023-05-10T08:25:44;99954.66;;;15.01;100.00
29121;BME280;16191;49.548;8.658;2023-05-10T08:28:11;99954.66;;;15.01;100.00
29121;BME280;16191;49.548;8.658;2023-05-10T08:30:37;99962.91;;;15.09;100.00
29121;BME280;16191;49.548;8.658;2023-05-10T08:33:04;99957.19;;;15.03;100.00
29121;BME280;16191;49.548;8.658;2023-05-10T08:35:31;99955.88;;;15.10;100.00
29121;BME280;16191;49.548;8.658;2023-05-10T08:37:59;99956.44;;;15.15;100.00
29121;BME280;16191;49.548;8.658;2023-05-10T08:40:26;99960.72;;;15.16;100.00
29121;BME280;16191;49.548;8.658;2023-05-10T08:42:58;99957.97;;;15.32;100.00
29121;BME280;16191;49.548;8.658;2023-05-10T08:45:28;99960.31;;;15.22;100.00
29121;BME280;16191;49.548;8.658;2023-05-10T08:48:01;99960.16;;;15.38;100.00
29121;BME280;16191;49.548;8.658;2023-05-10T08:50:29;99966.13;;;15.54;100.00
29121;BME280;16191;49.548;8.658;2023-05-10T08:52:57;99960.84;;;15.81;100.00
29121;BME280;16191;49.548;8.658;2023-05-10T08:55:25;99956.66;;;16.04;100.00
29121;BME280;16191;49.548;8.658;2023-05-10T08:57:52;99946.34;;;16.26;100.00
29121;BME280;16191;49.548;8.658;2023-05-10T09:00:19;99956.03;;;16.38;100.00
29121;BME280;16191;49.548;8.658;2023-05-10T09:02:48;99953.09;;;16.43;100.00
29121;BME280;16191;49.548;8.658;2023-05-10T09:05:15;99956.56;;;16.69;100.00
29121;BME280;16191;49.548;8.658;2023-05-10T09:07:44;99954.03;;;16.55;100.00
29121;BME280;16191;49.548;8.658;2023-05-10T09:10:11;99951.72;;;16.37;100.00
29121;BME280;16191;49.548;8.658;2023-05-10T09:12:39;99960.47;;;16.38;100.00
29121;BME280;16191;49.548;8.658;2023-05-10T09:15:07;99958.78;;;16.37;100.00
29121;BME280;16191;49.548;8.658;2023-05-10T09:17:35;99961.94;;;16.29;100.00
29121;BME280;16191;49.548;8.658;2023-05-10T09:20:03;99967.94;;;16.06;100.00
29121;BME280;16191;49.548;8.658;2023-05-10T09:22:31;99973.41;;;16.03;100.00
29121;BME280;16191;49.548;8.658;2023-05-10T09:25:04;99990.34;;;15.59;100.00
29121;BME280;16191;49.548;8.658;2023-05-10T09:27:32;99997.19;;;15.35;100.00
29121;BME280;16191;49.548;8.658;2023-05-10T09:29:58;100012.97;;;14.94;100.00
29121;BME280;16191;49.548;8.658;2023-05-10T09:32:41;100002.84;;;14.88;100.00
29121;BME280;16191;49.548;8.658;2023-05-10T09:35:09;100003.59;;;14.90;100.00
29121;BME280;16191;49.548;8.658;2023-05-10T09:37:36;100007.69;;;14.80;100.00
29121;BME280;16191;49.548;8.658;2023-05-10T09:40:05;100011.28;;;14.93;100.00
29121;BME280;16191;49.548;8.658;2023-05-10T09:42:34;100013.44;;;14.72;100.00
29121;BME280;16191;49.548;8.658;2023-05-10T09:45:05;100028.63;;;14.67;100.00
29121;BME280;16191;49.548;8.658;2023-05-10T09:47:33;100026.38;;;14.89;100.00
29121;BME280;16191;49.548;8.658;2023-05-10T09:50:02;100027.75;;;15.09;100.00
29121;BME280;16191;49.548;8.658;2023-05-10T09:52:30;100026.69;;;14.70;100.00
29121;BME280;16191;49.548;8.658;2023-05-10T09:54:57;100025.25;;;14.93;100.00
29121;BME280;16191;49.548;8.658;2023-05-10T09:57:24;100025.13;;;14.95;100.00
29121;BME280;16191;49.548;8.658;2023-05-10T09:59:52;100021.84;;;15.05;100.00
29121;BME280;16191;49.548;8.658;2023-05-10T10:02:20;100020.72;;;15.09;100.00
29121;BME280;16191;49.548;8.658;2023-05-10T10:04:49;100016.97;;;14.99;100.00
29121;BME280;16191;49.548;8.658;2023-05-10T10:07:22;100014.16;;;15.02;100.00
29121;BME280;16191;49.548;8.658;2023-05-10T10:09:50;100023.16;;;15.13;100.00
29121;BME280;16191;49.548;8.658;2023-05-10T10:12:16;100013.78;;;15.08;100.00
29121;BME280;16191;49.548;8.658;2023-05-10T10:14:43;100007.88;;;15.05;100.00
29121;BME280;16191;49.548;8.658;2023-05-10T10:17:10;100012.13;;;14.93;100.00
29121;BME280;16191;49.548;8.658;2023-05-10T10:19:36;100035.78;;;14.35;100.00
29121;BME280;16191;49.548;8.658;2023-05-10T10:22:04;100019.28;;;13.89;100.00
29121;BME280;16191;49.548;8.658;2023-05-10T10:24:31;100047.50;;;13.22;100.00
29121;BME280;16191;49.548;8.658;2023-05-10T10:27:09;100066.31;;;12.97;100.00
29121;BME280;16191;49.548;8.658;2023-05-10T10:29:49;100065.19;;;13.19;100.00
29121;BME280;16191;49.548;8.658;2023-05-10T10:32:27;100061.31;;;13.26;100.00
29121;BME280;16191;49.548;8.658;2023-05-10T10:34:56;100059.88;;;13.20;100.00
29121;BME280;16191;49.548;8.658;2023-05-10T10:37:23;100068.16;;;13.28;100.00
29121;BME280;16191;49.548;8.658;2023-05-10T10:39:50;100071.69;;;13.43;100.00
29121;BME280;16191;49.548;8.658;2023-05-10T10:42:46;100063.91;;;13.73;100.00
29121;BME280;16191;49.548;8.658;2023-05-10T10:45:13;100070.97;;;14.02;100.00
29121;BME280;16191;49.548;8.658;2023-05-10T10:47:40;100073.34;;;14.21;100.00
29121;BME280;16191;49.548;8.658;2023-05-10T10:50:09;100067.09;;;14.38;100.00
29121;BME280;16191;49.548;8.658;2023-05-10T10:52:40;100063.69;;;14.52;100.00
29121;BME280;16191;49.548;8.658;2023-05-10T10:55:12;100066.34;;;14.66;100.00
29121;BME280;16191;49.548;8.658;2023-05-10T10:57:55;100068.47;;;14.73;100.00
29121;BME280;16191;49.548;8.658;2023-05-10T11:00:31;100058.09;;;14.86;100.00
29121;BME280;16191;49.548;8.658;2023-05-10T11:03:04;100061.91;;;14.95;100.00
29121;BME280;16191;49.548;8.658;2023-05-10T11:08:11;100053.06;;;15.24;100.00
29121;BME280;16191;49.548;8.658;2023-05-10T11:10:39;100047.25;;;15.33;100.00
29121;BME280;16191;49.548;8.658;2023-05-10T11:13:08;100047.28;;;15.46;100.00
29121;BME280;16191;49.548;8.658;2023-05-10T11:15:37;100042.13;;;15.59;100.00
29121;BME280;16191;49.548;8.658;2023-05-10T11:18:29;100041.53;;;15.68;100.00
29121;BME280;16191;49.548;8.658;2023-05-10T11:21:01;100036.84;;;15.86;100.00
29121;BME280;16191;49.548;8.658;2023-05-10T11:23:55;100037.00;;;16.09;100.00
29121;BME280;16191;49.548;8.658;2023-05-10T11:26:24;100028.81;;;16.14;100.00
29121;BME280;16191;49.548;8.658;2023-05-10T11:28:53;100031.78;;;16.35;100.00
29121;BME280;16191;49.548;8.658;2023-05-10T11:31:24;100027.13;;;16.51;100.00
29121;BME280;16191;49.548;8.658;2023-05-10T11:33:55;100015.97;;;16.22;100.00
29121;BME280;16191;49.548;8.658;2023-05-10T11:36:32;100009.97;;;16.20;100.00
29121;BME280;16191;49.548;8.658;2023-05-10T11:38:59;100011.22;;;16.15;100.00
29121;BME280;16191;49.548;8.658;2023-05-10T11:41:28;100016.81;;;16.35;100.00
29121;BME280;16191;49.548;8.658;2023-05-10T11:43:56;100010.06;;;16.31;100.00
29121;BME280;16191;49.548;8.658;2023-05-10T11:46:24;100020.16;;;15.99;100.00
29121;BME280;16191;49.548;8.658;2023-05-10T11:48:59;100026.94;;;15.76;100.00
29121;BME280;16191;49.548;8.658;2023-05-10T11:51:33;100019.03;;;15.76;100.00
29121;BME280;16191;49.548;8.658;2023-05-10T11:54:00;100027.78;;;15.77;100.00
29121;BME280;16191;49.548;8.658;2023-05-10T11:56:27;100021.59;;;15.78;100.00
29121;BME280;16191;49.548;8.658;2023-05-10T11:58:57;100027.13;;;15.73;100.00
29121;BME280;16191;49.548;8.658;2023-05-10T12:01:28;100032.22;;;15.89;100.00
29121;BME280;16191;49.548;8.658;2023-05-10T12:03:56;100026.06;;;16.28;100.00
29121;BME280;16191;49.548;8.658;2023-05-10T12:06:29;100023.88;;;16.48;100.00
29121;BME280;16191;49.548;8.658;2023-05-10T12:08:55;100024.50;;;16.89;100.00
29121;BME280;16191;49.548;8.658;2023-05-10T12:11:27;100023.50;;;17.16;100.00
29121;BME280;16191;49.548;8.658;2023-05-10T12:13:54;100025.13;;;17.05;100.00
29121;BME280;16191;49.548;8.658;2023-05-10T12:16:28;100025.13;;;16.93;100.00
29121;BME280;16191;49.548;8.658;2023-05-10T12:19:00;100023.25;;;16.69;100.00
29121;BME280;16191;49.548;8.658;2023-05-10T12:21:30;100028.53;;;16.69;100.00
29121;BME280;16191;49.548;8.658;2023-05-10T12:24:02;100034.31;;;16.62;100.00
29121;BME280;16191;49.548;8.658;2023-05-10T12:26:29;100026.84;;;16.81;100.00
29121;BME280;16191;49.548;8.658;2023-05-10T12:31:54;100036.78;;;17.14;100.00
29121;BME280;16191;49.548;8.658;2023-05-10T12:34:32;100034.97;;;17.27;100.00
29121;BME280;16191;49.548;8.658;2023-05-10T12:36:59;100032.88;;;17.20;99.84
29121;BME280;16191;49.548;8.658;2023-05-10T12:39:26;100028.97;;;17.25;99.06
29121;BME280;16191;49.548;8.658;2023-05-10T12:41:52;100029.66;;;17.03;96.46
29121;BME280;16191;49.548;8.658;2023-05-10T12:44:19;100032.09;;;17.06;100.00
29121;BME280;16191;49.548;8.658;2023-05-10T12:46:45;100036.25;;;17.22;100.00
29121;BME280;16191;49.548;8.658;2023-05-10T12:49:12;100032.50;;;17.37;100.00
29121;BME280;16191;49.548;8.658;2023-05-10T12:51:39;100043.00;;;17.13;100.00
29121;BME280;16191;49.548;8.658;2023-05-10T12:54:05;100036.91;;;17.12;100.00
29121;BME280;16191;49.548;8.658;2023-05-10T12:56:32;100050.91;;;17.26;100.00
29121;BME280;16191;49.548;8.658;2023-05-10T12:58:58;100045.84;;;17.23;100.00
29121;BME280;16191;49.548;8.658;2023-05-10T13:01:25;100038.63;;;17.37;100.00
29121;BME280;16191;49.548;8.658;2023-05-10T13:03:51;100045.91;;;17.34;100.00
29121;BME280;16191;49.548;8.658;2023-05-10T13:06:18;100041.56;;;17.45;100.00
29121;BME280;16191;49.548;8.658;2023-05-10T13:08:44;100050.94;;;17.97;100.00
29121;BME280;16191;49.548;8.658;2023-05-10T13:11:11;100035.72;;;18.36;100.00